Sandia Park, NM (87047)

12:21 PM MST on December 08, 2016 (GMT -0700)
San Pedro Creek Estates | | Change Station

Elev 6407 ft 35.25 °N, 106.33 °W | Updated 27 seconds ago

Partly Cloudy
Partly Cloudy
28.8 °F
Feels Like 29 °F
N
2.5
Wind Variable Wind from ESE
Gusts 2.5 mph

Today
High -- | Low -- °F
--% Chance of Precip.
Yesterday
High -- | Low -- °F
Precip. -- in
Pressure 30.43 in
Visibility 10.0 miles
Clouds Few 4200 ft
Few 5500 ft
Windchill 29 °F
Dew Point 11 °F
Humidity 47%
Rainfall 0.00 in
Snow Depth Not available.
7:01 AM 4:52 PM
Waxing Gibbous, 66% visible
METAR KABQ 081852Z VRB03KT 10SM FEW042 FEW055 01/M10 A3038 RMK AO2 SLP302 MTN TOPS OBSC NE T00061100
Pressure 30.43 in
Visibility 10.0 miles
Clouds Few 4200 ft
Few 5500 ft
Windchill 29 °F
Dew Point 11 °F
Humidity 47%
Rainfall 0.00 in
Snow Depth Not available.
7:01 AM 4:52 PM
Waxing Gibbous, 66% visible
METAR KABQ 081852Z VRB03KT 10SM FEW042 FEW055 01/M10 A3038 RMK AO2 SLP302 MTN TOPS OBSC NE T00061100

10-Day Weather Forecast

Almanac

Astronomy

Dec. 08, 2016 Rise Set
Actual Time
Civil Twilight
Nautical Twilight
Astronomical Twilight
Moon
Length of Visible Light
Length of Day
Tomorrow will be .
, % of the Moon is Illuminated

Today's Extremes

State Highs State Lows

Community

WunderPhotos

Upload Photos

1,956,277 photos uploaded!

WunderBlog® & News

Nearby

Air Quality

  Air Quality AQ Index Pollutant
Not available.

Snow Depth

Station Depth Elevation

Earthquake Activity

City Distance Mag. Time & Date
Minimum magnitude displayed is 2.5.

Coastal Water Temperatures

Place Temperature

Stations

Nearby Weather Stations

Station Location Temp. Windchill Dew Point Humidity Wind Precip. Elev Updated Type
                   

Watches & Warnings

There are currently no watches in effect.